createdAt,value
2019-01-20T08:29:54.390Z,29.32
2019-01-20T08:32:24.116Z,30.12
2019-01-20T08:34:53.906Z,30.25
2019-01-20T08:37:28.769Z,33.63
2019-01-20T08:39:55.328Z,29.18
2019-01-20T08:42:25.053Z,31.48
2019-01-20T08:44:54.953Z,30.25
2019-01-20T08:47:37.978Z,30.48
2019-01-20T08:50:11.398Z,29.40
2019-01-20T08:52:41.817Z,28.85
2019-01-20T08:55:12.839Z,28.83
2019-01-20T08:57:42.641Z,29.60
2019-01-20T09:00:17.384Z,30.50
2019-01-20T09:02:47.239Z,28.60
2019-01-20T09:05:17.183Z,26.45
2019-01-20T09:07:46.979Z,26.40
2019-01-20T09:10:20.232Z,25.32
2019-01-20T09:12:50.308Z,27.65
2019-01-20T09:15:20.097Z,32.25
2019-01-20T09:17:49.895Z,31.00
2019-01-20T09:20:19.656Z,30.88
2019-01-20T09:22:49.444Z,30.68
2019-01-20T09:25:19.309Z,28.65
2019-01-20T09:27:49.190Z,26.65
2019-01-20T09:30:20.356Z,25.80
2019-01-20T09:32:50.264Z,26.30
2019-01-20T09:35:20.222Z,25.50
2019-01-20T09:37:50.903Z,24.87
2019-01-20T09:40:20.696Z,22.77
2019-01-20T09:42:50.601Z,24.45
2019-01-20T09:45:27.892Z,23.57
2019-01-20T09:47:57.809Z,24.07
2019-01-20T09:50:30.428Z,24.73
2019-01-20T09:53:01.694Z,23.57
2019-01-20T09:55:34.300Z,24.63
2019-01-20T09:58:05.468Z,23.20
2019-01-20T10:00:35.571Z,23.63
2019-01-20T10:03:05.625Z,24.10
2019-01-20T10:05:35.532Z,26.03
2019-01-20T10:08:05.625Z,23.62
2019-01-20T10:10:35.582Z,23.25
2019-01-20T10:13:05.576Z,24.55
2019-01-20T10:15:35.425Z,24.37
2019-01-20T10:18:05.539Z,30.43
2019-01-20T10:20:35.342Z,25.77
2019-01-20T10:23:05.220Z,24.67
2019-01-20T10:25:35.018Z,24.50
2019-01-20T10:28:06.692Z,25.27
2019-01-20T10:30:37.332Z,26.25
2019-01-20T10:33:07.140Z,26.12
2019-01-20T10:35:39.509Z,23.63
2019-01-20T10:38:10.344Z,24.00
2019-01-20T10:40:40.136Z,24.57
2019-01-20T10:43:09.944Z,24.73
2019-01-20T10:45:39.732Z,24.60
2019-01-20T10:48:09.589Z,26.03
2019-01-20T10:50:39.466Z,25.50
2019-01-20T10:53:09.341Z,24.10
2019-01-20T10:55:39.234Z,24.77
2019-01-20T10:58:09.046Z,25.13
2019-01-20T11:00:40.175Z,29.63
2019-01-20T11:03:10.044Z,27.97
2019-01-20T11:05:40.003Z,29.67
2019-01-20T11:08:09.934Z,33.23
2019-01-20T11:10:40.050Z,31.30
2019-01-20T11:13:10.860Z,31.83
2019-01-20T11:15:40.809Z,32.60
2019-01-20T11:18:10.712Z,32.23
2019-01-20T11:20:40.424Z,31.03
2019-01-20T11:23:10.484Z,32.70
2019-01-20T11:25:42.336Z,31.17
2019-01-20T11:28:19.388Z,32.10
2019-01-20T11:30:49.564Z,31.07
2019-01-20T11:33:19.392Z,29.97
2019-01-20T11:35:49.188Z,29.53
2019-01-20T11:38:19.040Z,29.97
2019-01-20T11:40:48.854Z,30.23
2019-01-20T11:43:18.660Z,29.07
2019-01-20T11:45:48.491Z,24.60
2019-01-20T11:48:18.408Z,25.07
2019-01-20T11:50:49.420Z,27.00
2019-01-20T11:53:19.171Z,27.97
2019-01-20T11:55:49.957Z,28.80
2019-01-20T11:58:19.780Z,28.77
2019-01-20T12:00:49.592Z,28.57
2019-01-20T12:03:19.388Z,27.97
2019-01-20T12:05:49.256Z,28.40
2019-01-20T12:09:38.502Z,26.53
2019-01-20T12:12:07.964Z,29.37
2019-01-20T12:14:39.380Z,29.40
2019-01-20T12:17:08.798Z,30.43
2019-01-20T12:19:38.214Z,29.27
2019-01-20T12:22:07.704Z,30.47
2019-01-20T12:24:37.021Z,29.90
2019-01-20T12:27:06.560Z,30.20
2019-01-20T12:29:35.957Z,28.77
2019-01-20T12:32:05.330Z,30.17
2019-01-20T12:34:34.817Z,31.10
2019-01-20T12:37:04.277Z,30.80
2019-01-20T12:39:33.737Z,29.53
2019-01-20T12:42:03.238Z,31.37
2019-01-20T12:44:32.548Z,44.03
2019-01-20T12:47:03.664Z,36.83
2019-01-20T12:49:32.992Z,31.57
2019-01-20T12:52:02.486Z,30.63
2019-01-20T12:54:34.913Z,32.10
2019-01-20T12:57:04.749Z,31.90
2019-01-20T12:59:34.052Z,32.13
2019-01-20T13:02:05.619Z,32.17
2019-01-20T13:04:35.042Z,31.63
2019-01-20T13:07:05.035Z,32.23
2019-01-20T13:09:34.448Z,31.00
2019-01-20T13:12:03.941Z,32.67
2019-01-20T13:14:38.924Z,31.70
2019-01-20T13:17:04.648Z,30.33
2019-01-20T13:19:34.085Z,33.87
2019-01-20T13:22:03.553Z,31.53
2019-01-20T13:24:32.890Z,31.70
2019-01-20T13:27:02.368Z,32.67
2019-01-20T13:29:31.866Z,30.70
2019-01-20T13:32:01.253Z,31.80
2019-01-20T13:34:30.582Z,31.80
2019-01-20T13:37:00.058Z,31.40
2019-01-20T13:39:29.435Z,31.80
2019-01-20T13:41:58.906Z,33.23
2019-01-20T13:44:28.322Z,30.37
2019-01-20T13:46:57.813Z,31.93
2019-01-20T13:49:27.224Z,33.43
2019-01-20T13:51:56.769Z,33.80
2019-01-20T13:54:26.209Z,33.23
2019-01-20T13:56:55.676Z,31.90
2019-01-20T13:59:25.136Z,32.73
2019-01-20T14:01:54.546Z,32.27
2019-01-20T14:04:24.044Z,34.13
2019-01-20T14:06:54.040Z,33.30
2019-01-20T14:09:23.433Z,31.17
2019-01-20T14:11:52.845Z,32.30
2019-01-20T14:14:22.231Z,33.17
2019-01-20T14:16:51.736Z,32.43
2019-01-20T14:19:21.829Z,30.60
2019-01-20T14:21:51.549Z,29.52
2019-01-20T14:24:20.968Z,31.60
2019-01-20T14:26:50.459Z,31.73
2019-01-20T14:29:19.939Z,29.73
2019-01-20T14:31:49.404Z,30.83
2019-01-20T14:34:18.719Z,30.83
2019-01-20T14:36:48.105Z,30.25
2019-01-20T14:39:17.423Z,30.20
2019-01-20T14:41:46.727Z,30.50
2019-01-20T14:44:16.124Z,30.03
2019-01-20T14:46:45.637Z,31.77
2019-01-20T14:49:15.033Z,32.10
2019-01-20T14:51:44.441Z,30.37
2019-01-20T14:54:13.927Z,31.53
2019-01-20T14:56:43.392Z,30.60
2019-01-20T14:59:12.843Z,29.65
2019-01-20T15:01:42.189Z,29.07
2019-01-20T15:04:11.600Z,30.32
2019-01-20T15:06:41.016Z,30.90
2019-01-20T15:09:10.585Z,30.80
2019-01-20T15:11:40.107Z,31.12
2019-01-20T15:14:09.649Z,29.23
2019-01-20T15:16:39.139Z,31.42
2019-01-20T15:19:08.650Z,30.30
2019-01-20T15:21:38.042Z,29.30
2019-01-20T15:24:07.364Z,29.27
2019-01-20T15:26:36.866Z,29.77
2019-01-20T15:29:06.464Z,29.18
2019-01-20T15:31:35.808Z,29.15
2019-01-20T15:34:05.293Z,29.45
2019-01-20T15:36:34.697Z,28.55
2019-01-20T15:39:04.916Z,29.57
2019-01-20T15:41:34.367Z,31.52
2019-01-20T15:44:04.023Z,31.40
2019-01-20T15:46:33.437Z,31.45
2019-01-20T15:49:02.813Z,29.42
2019-01-20T15:51:32.140Z,30.95
2019-01-20T15:54:01.493Z,31.42
2019-01-20T15:56:34.165Z,32.75
2019-01-20T15:59:02.049Z,31.68
2019-01-20T16:01:31.385Z,33.92
2019-01-20T16:04:00.851Z,31.80
2019-01-20T16:06:30.189Z,30.68
2019-01-20T16:08:59.537Z,32.33
2019-01-20T16:11:31.300Z,32.03
2019-01-20T16:14:00.112Z,31.93
2019-01-20T16:16:29.530Z,31.62
2019-01-20T16:21:37.520Z,30.48
2019-01-20T16:24:16.703Z,31.15
2019-01-20T16:26:52.882Z,32.60
2019-01-20T16:29:22.871Z,33.00
2019-01-20T16:32:11.176Z,34.03
2019-01-20T16:34:41.138Z,33.20
2019-01-20T16:41:00.378Z,34.88
2019-01-20T16:45:42.676Z,32.55
2019-01-20T16:48:13.400Z,32.70
2019-01-20T16:50:43.596Z,34.78
2019-01-20T16:53:32.381Z,34.50
2019-01-20T16:56:08.657Z,32.35
2019-01-20T16:58:38.885Z,36.50
2019-01-20T17:01:09.048Z,33.20
2019-01-20T17:05:55.852Z,35.08
2019-01-20T17:08:25.462Z,34.00
2019-01-20T17:10:54.832Z,36.83
2019-01-20T17:13:24.555Z,35.92
2019-01-20T17:15:53.982Z,36.98
2019-01-20T17:18:23.471Z,37.37
2019-01-20T17:20:52.897Z,37.78
2019-01-20T17:23:22.421Z,36.68
2019-01-20T17:25:51.814Z,37.88
2019-01-20T17:28:21.149Z,37.55
2019-01-20T17:30:50.479Z,36.45
2019-01-20T17:33:19.965Z,35.05
2019-01-20T17:35:49.538Z,34.65
2019-01-20T17:38:18.888Z,36.28
2019-01-20T17:40:48.292Z,43.48
2019-01-20T17:43:17.733Z,48.25
2019-01-20T17:45:49.845Z,46.37
2019-01-20T17:48:18.236Z,43.85
2019-01-20T17:50:47.861Z,39.75
2019-01-20T17:53:17.367Z,37.17
2019-01-20T17:55:46.824Z,36.98
2019-01-20T17:58:16.262Z,39.30
2019-01-20T18:00:51.992Z,36.73
2019-01-20T18:03:21.524Z,37.23
2019-01-20T18:05:51.101Z,36.90
2019-01-20T18:08:20.422Z,36.00
2019-01-20T18:10:49.816Z,39.48
2019-01-20T18:13:21.145Z,37.75
2019-01-20T18:15:54.664Z,40.35
2019-01-20T18:18:21.866Z,40.27
2019-01-20T18:20:51.386Z,37.83
2019-01-20T18:23:21.173Z,38.38
2019-01-20T18:25:50.728Z,38.73
2019-01-20T18:28:20.296Z,38.98
2019-01-20T18:30:49.645Z,38.67
2019-01-20T18:33:19.099Z,39.75
2019-01-20T18:35:49.225Z,37.53
2019-01-20T18:38:18.794Z,37.00
2019-01-20T18:41:42.579Z,37.50
2019-01-20T18:44:12.177Z,36.40
2019-01-20T18:46:41.708Z,38.23
2019-01-20T18:49:11.560Z,34.67
2019-01-20T18:51:41.108Z,37.38
2019-01-20T18:54:10.944Z,36.70
2019-01-20T18:56:40.587Z,38.02
2019-01-20T18:59:10.088Z,37.63
2019-01-20T19:01:39.538Z,36.95
2019-01-20T19:04:08.993Z,39.20
2019-01-20T19:06:38.502Z,36.33
2019-01-20T19:09:08.817Z,39.48
2019-01-20T19:11:38.330Z,40.70
2019-01-20T19:14:08.042Z,37.80
2019-01-20T19:16:37.595Z,34.83
2019-01-20T19:19:07.009Z,37.20
2019-01-20T19:21:36.521Z,37.58
2019-01-20T19:24:06.030Z,39.98
2019-01-20T19:26:35.563Z,38.17
2019-01-20T19:29:05.278Z,39.63
2019-01-20T19:31:34.859Z,39.18
2019-01-20T19:34:04.393Z,38.00
2019-01-20T19:36:33.853Z,38.50
2019-01-20T19:39:03.479Z,41.60
2019-01-20T19:41:33.034Z,39.25
2019-01-20T19:44:02.518Z,38.63
2019-01-20T19:46:32.011Z,41.88
2019-01-20T19:49:01.525Z,41.35
2019-01-20T19:51:31.085Z,39.27
2019-01-20T19:54:00.605Z,40.25
2019-01-20T19:56:30.114Z,40.95
2019-01-20T19:58:59.755Z,39.25
2019-01-20T20:01:30.859Z,40.85
2019-01-20T20:04:00.435Z,43.13
2019-01-20T20:06:29.982Z,39.75
2019-01-20T20:08:59.511Z,41.08
2019-01-20T20:11:29.031Z,39.13
2019-01-20T20:13:58.552Z,42.35
2019-01-20T20:16:27.899Z,40.55
2019-01-20T20:18:57.508Z,41.83
2019-01-20T20:21:27.009Z,42.35
2019-01-20T20:23:56.431Z,43.13
2019-01-20T20:26:25.781Z,40.52
2019-01-20T20:28:58.047Z,41.33
2019-01-20T20:31:30.729Z,40.35
2019-01-20T20:34:00.140Z,39.30
2019-01-20T20:36:29.609Z,42.60
2019-01-20T20:38:59.116Z,39.83
2019-01-20T20:41:28.565Z,42.38
2019-01-20T20:44:01.944Z,41.42
2019-01-20T20:46:40.665Z,39.45
2019-01-20T20:49:10.180Z,39.48
2019-01-20T20:51:39.768Z,40.95
2019-01-20T20:54:12.532Z,40.48
2019-01-20T20:56:42.063Z,40.92
2019-01-20T20:59:13.776Z,40.58
2019-01-20T21:01:43.352Z,39.58
2019-01-20T21:04:12.978Z,40.58
2019-01-20T21:06:42.510Z,39.23
2019-01-20T21:09:12.166Z,39.05
2019-01-20T21:11:41.677Z,39.25
2019-01-20T21:14:11.074Z,39.27
2019-01-20T21:16:40.522Z,40.78
2019-01-20T21:19:15.984Z,41.77
2019-01-20T21:21:45.561Z,39.50
2019-01-20T21:24:15.133Z,38.15
2019-01-20T21:26:44.722Z,38.90
2019-01-20T21:29:14.257Z,39.10
2019-01-20T21:31:43.841Z,38.48
2019-01-20T21:34:13.349Z,37.73
2019-01-20T21:36:42.821Z,39.08
2019-01-20T21:39:12.316Z,39.00
2019-01-20T21:41:41.858Z,41.80
2019-01-20T21:44:11.377Z,40.83
2019-01-20T21:46:45.302Z,42.27
2019-01-20T21:49:14.468Z,38.50
2019-01-20T21:51:43.941Z,42.33
2019-01-20T21:54:13.313Z,41.20
2019-01-20T21:56:42.846Z,41.65
2019-01-20T21:59:12.336Z,40.00
2019-01-20T22:01:41.856Z,42.33
2019-01-20T22:04:11.317Z,42.05
2019-01-20T22:06:40.777Z,42.83
2019-01-20T22:09:10.304Z,38.55
2019-01-20T22:11:39.830Z,41.30
2019-01-20T22:14:09.260Z,39.70
2019-01-20T22:16:38.723Z,40.55
2019-01-20T22:19:08.244Z,40.65
2019-01-20T22:21:37.793Z,39.78
2019-01-20T22:24:07.223Z,40.50
2019-01-20T22:26:36.736Z,41.53
2019-01-20T22:29:06.319Z,39.53
2019-01-20T22:31:36.102Z,40.48
2019-01-20T22:34:05.665Z,41.33
2019-01-20T22:36:35.121Z,40.83
2019-01-20T22:39:07.221Z,40.98
2019-01-20T22:41:36.725Z,40.25
2019-01-20T22:44:06.229Z,39.25
2019-01-20T22:46:35.606Z,38.50
2019-01-20T22:49:05.127Z,40.33
2019-01-20T22:51:34.723Z,40.33
2019-01-20T22:54:04.287Z,39.58
2019-01-20T22:56:33.752Z,39.42
2019-01-20T22:59:03.247Z,40.23
2019-01-20T23:01:32.960Z,42.38
2019-01-20T23:04:02.503Z,40.65
2019-01-20T23:06:32.077Z,41.30
2019-01-20T23:09:06.521Z,39.67
2019-01-20T23:11:32.854Z,41.08
2019-01-20T23:14:02.272Z,42.17
2019-01-20T23:16:31.774Z,40.23
2019-01-20T23:19:01.297Z,39.92
2019-01-20T23:21:30.870Z,40.48
2019-01-20T23:24:00.424Z,41.25
2019-01-20T23:26:29.878Z,39.73
2019-01-20T23:28:59.297Z,39.70
2019-01-20T23:31:28.846Z,40.90
2019-01-20T23:33:58.357Z,39.13
2019-01-20T23:36:27.719Z,39.70
2019-01-20T23:38:57.349Z,40.28
2019-01-20T23:41:26.795Z,38.17
2019-01-20T23:43:56.358Z,41.40
2019-01-20T23:46:25.886Z,41.33
2019-01-20T23:48:55.234Z,40.88
2019-01-20T23:51:24.746Z,40.17
2019-01-20T23:53:54.294Z,41.50
2019-01-20T23:56:25.922Z,42.05
2019-01-20T23:58:55.460Z,42.80
